Rome, Wisconsin
Current Conditions -  °F | °C
As of 4:54 AM on Tuesday 21 Oct 2014 (Local Time) from KISW Reporting Station
Clear Clear  
Wind Chill: 34°   Ceiling: Unl
Heat Index: 40°   Visibility: 10mi
Dew Point: 34°   Wind: 9mph
Humidity: 79%   Direction: 20°NNE
Pressure: 30.15"   Gusts: NA
Location:  44.252°N, 89.9853°W
Report Text: KISW 210954Z AUTO 02008KT 10SM CLR 04/01 A3015 RMK AO2 SLP214 T00440011
Loading
Personal Weather Stations






























Interactive Weather Map
Tropical Storm Tracking
New forecast layout! Learn more

10-Day Weather Forecast

Advertisements
Track Severe Weather on mobile